createdAt,value
2023-10-23T00:00:19.319Z,100376.06
2023-10-23T00:03:22.044Z,100376.59
2023-10-23T00:06:24.799Z,100378.28
2023-10-23T00:09:27.183Z,100377.53
2023-10-23T00:12:29.646Z,100384.16
2023-10-23T00:15:33.579Z,100388.78
2023-10-23T00:18:36.009Z,100388.16
2023-10-23T00:21:38.643Z,100397.31
2023-10-23T00:24:41.251Z,100394.31
2023-10-23T00:27:43.980Z,100397.19
2023-10-23T00:30:46.582Z,100396.28
2023-10-23T00:33:49.469Z,100394.78
2023-10-23T00:36:52.045Z,100407.75
2023-10-23T00:39:54.462Z,100405.25
2023-10-23T00:42:56.952Z,100410.81
2023-10-23T00:46:01.624Z,100409.09
2023-10-23T00:49:04.885Z,100410.97
2023-10-23T00:52:07.586Z,100416.34
2023-10-23T00:55:13.115Z,100409.44
2023-10-23T00:58:16.342Z,100413.03
2023-10-23T01:01:19.036Z,100415.31
2023-10-23T01:04:22.072Z,100422.91
2023-10-23T01:07:24.554Z,100434.34
2023-10-23T01:10:27.131Z,100433.22
2023-10-23T01:13:29.746Z,100422.00
2023-10-23T01:16:32.243Z,100431.75
2023-10-23T01:19:35.227Z,100440.38
2023-10-23T01:22:37.688Z,100442.97
2023-10-23T01:25:40.691Z,100447.53
2023-10-23T01:28:43.149Z,100446.75
2023-10-23T01:31:45.634Z,100448.31
2023-10-23T01:34:48.083Z,100445.94
2023-10-23T01:37:50.499Z,100445.25
2023-10-23T01:40:53.848Z,100448.41
2023-10-23T01:43:56.249Z,100439.84
2023-10-23T01:46:58.790Z,100438.25
2023-10-23T01:50:01.580Z,100448.50
2023-10-23T01:53:04.059Z,100438.09
2023-10-23T01:56:09.011Z,100437.00
2023-10-23T01:59:11.518Z,100442.22
2023-10-23T02:02:13.956Z,100437.00
2023-10-23T02:05:16.408Z,100449.00
2023-10-23T02:08:22.491Z,100433.56
2023-10-23T02:11:25.052Z,100444.28
2023-10-23T02:14:27.736Z,100441.13
2023-10-23T02:17:30.164Z,100439.25
2023-10-23T02:20:33.073Z,100439.84
2023-10-23T02:23:48.821Z,100440.25
2023-10-23T02:26:57.920Z,100435.31
2023-10-23T02:30:00.687Z,100438.25
2023-10-23T02:33:03.263Z,100438.75
2023-10-23T02:36:06.189Z,100442.25
2023-10-23T02:39:08.680Z,100449.53
2023-10-23T02:42:11.143Z,100454.38
2023-10-23T02:45:14.833Z,100453.56
2023-10-23T02:48:18.274Z,100460.06
2023-10-23T02:51:21.688Z,100455.78
2023-10-23T02:54:24.256Z,100457.47
2023-10-23T02:57:27.176Z,100456.47
2023-10-23T03:00:30.182Z,100456.81
2023-10-23T03:03:32.846Z,100455.28
2023-10-23T03:06:36.136Z,100464.56
2023-10-23T03:09:38.901Z,100479.00
2023-10-23T03:12:41.547Z,100473.53
2023-10-23T03:15:44.823Z,100475.88
2023-10-23T03:18:47.409Z,100473.63
2023-10-23T03:21:49.890Z,100472.72
2023-10-23T03:24:52.445Z,100479.59
2023-10-23T03:27:55.820Z,100483.41
2023-10-23T03:31:01.606Z,100481.53
2023-10-23T03:34:03.995Z,100479.38
2023-10-23T03:37:06.357Z,100484.69
2023-10-23T03:40:11.277Z,100487.34
2023-10-23T03:43:13.753Z,100501.53
2023-10-23T03:46:16.203Z,100500.91
2023-10-23T03:49:19.294Z,100497.81
2023-10-23T03:52:21.753Z,100505.03
2023-10-23T03:55:24.140Z,100505.19
2023-10-23T03:58:26.889Z,100490.91
2023-10-23T04:01:29.428Z,100503.59
2023-10-23T04:04:33.199Z,100498.38
2023-10-23T04:07:35.878Z,100501.53
2023-10-23T04:10:38.282Z,100503.38
2023-10-23T04:13:40.666Z,100509.47
2023-10-23T04:16:43.465Z,100519.34
2023-10-23T04:19:49.396Z,100510.25
2023-10-23T04:22:51.773Z,100512.19
2023-10-23T04:25:55.944Z,100517.94
2023-10-23T04:28:58.323Z,100505.22
2023-10-23T04:32:00.976Z,100509.19
2023-10-23T04:35:03.527Z,100511.66
2023-10-23T04:38:05.982Z,100512.28
2023-10-23T04:41:08.327Z,100508.97
2023-10-23T04:44:10.815Z,100513.97
2023-10-23T04:47:13.237Z,100517.88
2023-10-23T04:50:17.332Z,100521.00
2023-10-23T04:53:20.720Z,100519.16
2023-10-23T04:56:23.204Z,100528.09
2023-10-23T04:59:25.705Z,100536.94
2023-10-23T05:02:28.171Z,100535.41
2023-10-23T05:05:33.568Z,100539.94
2023-10-23T05:08:36.086Z,100540.38
2023-10-23T05:11:38.434Z,100543.78
2023-10-23T05:14:40.809Z,100546.84
2023-10-23T05:17:43.416Z,100559.84
2023-10-23T05:20:45.937Z,100566.19
2023-10-23T05:23:48.351Z,100571.56
2023-10-23T05:26:50.769Z,100584.34
2023-10-23T05:29:55.786Z,100582.75
2023-10-23T05:32:58.414Z,100589.00
2023-10-23T05:36:09.533Z,100591.00
2023-10-23T05:39:11.884Z,100600.31
2023-10-23T05:42:14.721Z,100599.13
2023-10-23T05:45:17.248Z,100605.69
2023-10-23T05:48:19.651Z,100610.44
2023-10-23T05:51:23.149Z,100609.22
2023-10-23T05:54:26.476Z,100612.22
2023-10-23T05:57:28.996Z,100615.84
2023-10-23T06:00:31.512Z,100622.22
2023-10-23T06:03:35.086Z,100626.34
2023-10-23T06:06:37.863Z,100634.53
2023-10-23T06:09:40.963Z,100630.16
2023-10-23T06:12:43.752Z,100633.72
2023-10-23T06:15:46.662Z,100637.50
2023-10-23T06:18:49.170Z,100648.50
2023-10-23T06:21:51.694Z,100647.44
2023-10-23T06:24:54.194Z,100646.25
2023-10-23T06:27:57.349Z,100643.28
2023-10-23T06:31:10.961Z,100643.50
2023-10-23T06:34:13.486Z,100643.47
2023-10-23T06:37:17.795Z,100647.13
2023-10-23T06:40:20.746Z,100647.25
2023-10-23T06:43:23.172Z,100641.19
2023-10-23T06:46:25.639Z,100650.38
2023-10-23T06:49:28.022Z,100650.72
2023-10-23T06:52:30.466Z,100659.53
2023-10-23T06:55:32.853Z,100663.25
2023-10-23T06:58:35.372Z,100656.53
2023-10-23T07:01:44.447Z,100665.97
2023-10-23T07:04:49.191Z,100669.09
2023-10-23T07:07:51.750Z,100664.06
2023-10-23T07:10:55.424Z,100667.31
2023-10-23T07:13:57.843Z,100681.53
2023-10-23T07:17:00.309Z,100680.94
2023-10-23T07:20:02.878Z,100682.34
2023-10-23T07:23:05.503Z,100683.63
2023-10-23T07:26:12.333Z,100682.91
2023-10-23T07:29:14.703Z,100677.84
2023-10-23T07:32:17.162Z,100676.41
2023-10-23T07:35:19.721Z,100663.03
2023-10-23T07:38:22.153Z,100672.44
2023-10-23T07:41:24.641Z,100663.31
2023-10-23T07:44:28.150Z,100668.13
2023-10-23T07:47:30.647Z,100677.19
2023-10-23T07:50:33.718Z,100682.34
2023-10-23T07:53:39.021Z,100675.13
2023-10-23T07:56:41.491Z,100670.81
2023-10-23T07:59:43.889Z,100668.16
2023-10-23T08:02:46.410Z,100680.13
2023-10-23T08:05:48.995Z,100679.28
2023-10-23T08:08:51.455Z,100682.66
2023-10-23T08:11:54.784Z,100674.53
2023-10-23T08:14:58.386Z,100676.94
2023-10-23T08:18:02.199Z,100675.75
2023-10-23T08:21:12.087Z,100682.31
2023-10-23T08:24:15.087Z,100674.59
2023-10-23T08:27:17.470Z,100671.03
2023-10-23T08:30:19.984Z,100675.06
2023-10-23T08:33:22.525Z,100676.22
2023-10-23T08:36:25.235Z,100669.31
2023-10-23T08:39:27.687Z,100670.88
2023-10-23T08:42:30.487Z,100673.59
2023-10-23T08:45:33.137Z,100667.16
2023-10-23T08:48:37.578Z,100676.53
2023-10-23T08:51:43.411Z,100678.34
2023-10-23T08:54:48.150Z,100671.72
2023-10-23T08:58:00.252Z,100673.25
2023-10-23T09:01:04.414Z,100665.41
2023-10-23T09:04:08.600Z,100661.63
2023-10-23T09:07:11.449Z,100665.41
2023-10-23T09:10:14.060Z,100671.91
2023-10-23T09:13:16.605Z,100680.13
2023-10-23T09:16:21.052Z,100679.31
2023-10-23T09:19:28.422Z,100673.63
2023-10-23T09:22:30.982Z,100666.03
2023-10-23T09:25:33.399Z,100671.94
2023-10-23T09:28:35.778Z,100669.16
2023-10-23T09:31:42.034Z,100660.31
2023-10-23T09:34:48.688Z,100660.31
2023-10-23T09:37:51.267Z,100662.53
2023-10-23T09:40:57.678Z,100659.16
2023-10-23T09:44:01.930Z,100657.84
2023-10-23T09:47:06.776Z,100665.41
2023-10-23T09:50:09.677Z,100651.00
2023-10-23T09:53:13.420Z,100646.72
2023-10-23T09:56:21.880Z,100653.34
2023-10-23T09:59:38.805Z,100646.91
2023-10-23T10:02:46.238Z,100636.78
2023-10-23T10:06:03.611Z,100633.84
2023-10-23T10:09:13.473Z,100631.56
2023-10-23T10:12:18.785Z,100623.78
2023-10-23T10:15:23.827Z,100611.72
2023-10-23T10:18:27.434Z,100611.22
2023-10-23T10:21:34.087Z,100612.00
2023-10-23T10:24:37.977Z,100604.56
2023-10-23T10:27:40.587Z,100601.56
2023-10-23T10:30:48.088Z,100601.72
2023-10-23T10:34:27.163Z,100593.97
2023-10-23T10:40:21.763Z,100602.47
2023-10-23T10:43:25.747Z,100594.13
2023-10-23T10:46:30.452Z,100592.09
2023-10-23T10:49:33.807Z,100593.06
2023-10-23T10:52:45.472Z,100593.34
2023-10-23T10:55:48.064Z,100598.41
2023-10-23T10:58:50.702Z,100582.88
2023-10-23T11:01:53.089Z,100588.25
2023-10-23T11:04:55.725Z,100592.44
2023-10-23T11:07:58.136Z,100582.34
2023-10-23T11:11:05.917Z,100577.63
2023-10-23T11:14:08.435Z,100568.16
2023-10-23T11:17:11.048Z,100564.75
2023-10-23T11:20:14.462Z,100557.56
2023-10-23T11:23:22.991Z,100558.34
2023-10-23T11:26:27.702Z,100551.75
2023-10-23T11:29:37.214Z,100540.34
2023-10-23T11:32:41.537Z,100543.97
2023-10-23T11:35:44.163Z,100545.25
2023-10-23T11:38:46.585Z,100543.06
2023-10-23T11:41:57.671Z,100542.91
2023-10-23T11:45:00.142Z,100549.22
2023-10-23T11:48:02.555Z,100536.47
2023-10-23T11:51:05.864Z,100536.16
2023-10-23T11:54:08.325Z,100537.25
2023-10-23T11:57:12.222Z,100526.66
2023-10-23T12:00:17.514Z,100542.50
2023-10-23T12:03:20.761Z,100542.09
2023-10-23T12:06:23.400Z,100537.69
2023-10-23T12:09:25.804Z,100538.03
2023-10-23T12:12:29.717Z,100531.06
2023-10-23T12:15:32.285Z,100536.38
2023-10-23T12:18:34.780Z,100529.72
2023-10-23T12:21:38.321Z,100539.19
2023-10-23T12:24:40.820Z,100527.59
2023-10-23T12:27:43.440Z,100528.81
2023-10-23T12:30:45.964Z,100519.69
2023-10-23T12:33:50.308Z,100532.25
2023-10-23T12:36:53.016Z,100528.13
2023-10-23T12:39:59.978Z,100510.97
2023-10-23T12:43:02.603Z,100516.13
2023-10-23T12:46:05.173Z,100513.63
2023-10-23T12:49:07.704Z,100516.84
2023-10-23T12:52:11.055Z,100506.97
2023-10-23T12:55:14.880Z,100502.94
2023-10-23T12:58:17.453Z,100501.56
2023-10-23T13:01:20.031Z,100497.81
2023-10-23T13:04:23.036Z,100494.59
2023-10-23T13:07:25.588Z,100497.09
2023-10-23T13:10:28.256Z,100494.50
2023-10-23T13:13:30.723Z,100495.28
2023-10-23T13:16:33.247Z,100493.78
2023-10-23T13:19:35.761Z,100491.00
2023-10-23T13:22:38.197Z,100490.09
2023-10-23T13:25:42.881Z,100483.59
2023-10-23T13:28:48.823Z,100475.56
2023-10-23T13:31:53.155Z,100475.88
2023-10-23T13:34:55.656Z,100472.97
2023-10-23T13:37:58.434Z,100471.06
2023-10-23T13:41:02.372Z,100489.50
2023-10-23T13:44:04.992Z,100485.66
2023-10-23T13:47:07.491Z,100487.84
2023-10-23T13:50:10.286Z,100482.38
2023-10-23T13:53:12.723Z,100487.91
2023-10-23T13:56:15.162Z,100480.44
2023-10-23T13:59:17.605Z,100479.06
2023-10-23T14:02:20.197Z,100476.06
2023-10-23T14:05:22.675Z,100479.06
2023-10-23T14:09:18.646Z,100484.56
2023-10-23T14:11:59.946Z,100482.84
2023-10-23T14:15:08.253Z,100483.91
2023-10-23T14:18:11.434Z,100485.69
2023-10-23T14:21:13.872Z,100478.91
2023-10-23T14:24:19.169Z,100475.63
2023-10-23T14:27:21.621Z,100479.56
2023-10-23T14:30:24.172Z,100480.22
2023-10-23T14:33:28.427Z,100470.13
2023-10-23T14:36:30.925Z,100471.84
2023-10-23T14:39:33.390Z,100462.59
2023-10-23T14:42:35.865Z,100459.78
2023-10-23T14:45:38.793Z,100455.41
2023-10-23T14:48:41.506Z,100460.88
2023-10-23T14:51:45.267Z,100449.56
2023-10-23T14:54:47.827Z,100444.44
2023-10-23T14:57:50.256Z,100443.00
2023-10-23T15:00:52.926Z,100442.00
2023-10-23T15:03:59.886Z,100445.16
2023-10-23T15:07:02.461Z,100445.22
2023-10-23T15:10:05.255Z,100444.59
2023-10-23T15:13:07.805Z,100450.59
2023-10-23T15:16:10.657Z,100439.66
2023-10-23T15:19:13.162Z,100451.41
2023-10-23T15:22:15.681Z,100442.13
2023-10-23T15:25:18.204Z,100447.91
2023-10-23T15:28:20.858Z,100445.03
2023-10-23T15:31:23.411Z,100440.34
2023-10-23T15:34:27.845Z,100450.28
2023-10-23T15:37:30.267Z,100441.63
2023-10-23T15:40:32.786Z,100442.34
2023-10-23T15:43:36.474Z,100439.31
2023-10-23T15:46:39.444Z,100440.84
2023-10-23T15:49:42.213Z,100438.78
2023-10-23T15:52:44.862Z,100448.84
2023-10-23T15:55:50.621Z,100444.69
2023-10-23T15:58:53.279Z,100451.28
2023-10-23T16:01:55.837Z,100447.34
2023-10-23T16:04:58.602Z,100448.13
2023-10-23T16:08:01.003Z,100442.47
2023-10-23T16:11:04.213Z,100441.94
2023-10-23T16:14:07.006Z,100447.44
2023-10-23T16:17:10.324Z,100451.97
2023-10-23T16:20:13.604Z,100446.38
2023-10-23T16:23:16.340Z,100451.75
2023-10-23T16:26:18.744Z,100454.91
2023-10-23T16:29:21.147Z,100454.91
2023-10-23T16:32:23.600Z,100457.25
2023-10-23T16:35:26.385Z,100449.31
2023-10-23T16:38:28.990Z,100450.19
2023-10-23T16:41:32.790Z,100442.84
2023-10-23T16:44:48.818Z,100447.03
2023-10-23T16:47:58.052Z,100440.22
2023-10-23T16:51:03.018Z,100442.06
2023-10-23T16:54:05.591Z,100441.06
2023-10-23T16:57:10.504Z,100444.25
2023-10-23T17:00:16.937Z,100426.69
2023-10-23T17:03:19.642Z,100445.38
2023-10-23T17:06:22.244Z,100443.03
2023-10-23T17:09:24.697Z,100437.53
2023-10-23T17:12:27.253Z,100437.56
2023-10-23T17:15:29.661Z,100440.56
2023-10-23T17:18:32.650Z,100425.66
2023-10-23T17:21:35.083Z,100427.19
2023-10-23T17:24:37.768Z,100431.06
2023-10-23T17:27:40.587Z,100424.22
2023-10-23T17:30:43.154Z,100414.38
2023-10-23T17:33:45.946Z,100414.88
2023-10-23T17:36:48.788Z,100424.66
2023-10-23T17:39:51.243Z,100419.31
2023-10-23T17:42:54.691Z,100422.13
2023-10-23T17:46:01.499Z,100418.97
2023-10-23T17:49:05.035Z,100427.22
2023-10-23T17:52:07.807Z,100433.38
2023-10-23T17:55:11.283Z,100421.41
2023-10-23T17:58:14.048Z,100430.16
2023-10-23T18:01:18.619Z,100433.84
2023-10-23T18:04:21.143Z,100432.38
2023-10-23T18:07:23.765Z,100434.16
2023-10-23T18:10:26.559Z,100424.13
2023-10-23T18:13:29.998Z,100419.09
2023-10-23T18:16:32.540Z,100415.59
2023-10-23T18:19:35.403Z,100420.16
2023-10-23T18:22:37.885Z,100422.59
2023-10-23T18:25:40.541Z,100428.13
2023-10-23T18:28:43.147Z,100416.81
2023-10-23T18:31:47.247Z,100412.25
2023-10-23T18:34:51.803Z,100418.16
2023-10-23T18:37:54.377Z,100425.13
2023-10-23T18:40:56.990Z,100428.28
2023-10-23T18:43:59.498Z,100427.38
2023-10-23T18:47:05.500Z,100436.16
2023-10-23T18:50:08.942Z,100434.09
2023-10-23T18:53:11.584Z,100435.34
2023-10-23T18:56:14.013Z,100435.50
2023-10-23T18:59:16.441Z,100442.25
2023-10-23T19:02:19.023Z,100446.84
2023-10-23T19:05:21.426Z,100449.97
2023-10-23T19:08:25.082Z,100445.25
2023-10-23T19:11:27.749Z,100439.94
2023-10-23T19:14:30.141Z,100429.88
2023-10-23T19:17:40.480Z,100435.84
2023-10-23T19:20:43.640Z,100448.72
2023-10-23T19:23:46.413Z,100449.66
2023-10-23T19:26:48.889Z,100442.28
2023-10-23T19:29:51.409Z,100444.31
2023-10-23T19:32:54.070Z,100433.63
2023-10-23T19:35:56.784Z,100433.63
2023-10-23T19:38:59.521Z,100434.09
2023-10-23T19:42:03.215Z,100442.69
2023-10-23T19:45:06.455Z,100444.13
2023-10-23T19:48:11.094Z,100438.94
2023-10-23T19:51:20.838Z,100438.94
2023-10-23T19:54:37.475Z,100434.09
2023-10-23T19:57:42.601Z,100440.19
2023-10-23T20:00:45.240Z,100434.19
2023-10-23T20:03:48.273Z,100441.22
2023-10-23T20:06:50.695Z,100433.03
2023-10-23T20:09:53.144Z,100434.13
2023-10-23T20:12:57.360Z,100434.00
2023-10-23T20:16:06.317Z,100429.16
2023-10-23T20:19:11.036Z,100422.59
2023-10-23T20:22:13.666Z,100434.97
2023-10-23T20:25:17.218Z,100435.75
2023-10-23T20:28:19.772Z,100436.66
2023-10-23T20:31:23.328Z,100439.94
2023-10-23T20:34:25.860Z,100439.44
2023-10-23T20:37:28.400Z,100437.75
2023-10-23T20:40:31.065Z,100438.06
2023-10-23T20:43:33.488Z,100430.19
2023-10-23T20:46:36.015Z,100431.03
2023-10-23T20:49:38.785Z,100420.06
2023-10-23T20:52:41.470Z,100429.53
2023-10-23T20:55:44.102Z,100426.69
2023-10-23T20:58:46.589Z,100424.84
2023-10-23T21:01:49.070Z,100416.66
2023-10-23T21:04:51.601Z,100407.25
2023-10-23T21:07:54.068Z,100411.63
2023-10-23T21:10:56.566Z,100409.28
2023-10-23T21:13:59.012Z,100400.50
2023-10-23T21:17:01.555Z,100395.03
2023-10-23T21:20:04.760Z,100398.97
2023-10-23T21:23:07.334Z,100395.50
2023-10-23T21:26:09.760Z,100385.16
2023-10-23T21:29:21.225Z,100387.00
2023-10-23T21:32:23.730Z,100396.28
2023-10-23T21:35:26.257Z,100403.63
2023-10-23T21:38:28.700Z,100386.88
2023-10-23T21:41:31.118Z,100396.09
2023-10-23T21:44:33.617Z,100387.78
2023-10-23T21:47:36.192Z,100389.84
2023-10-23T21:50:45.759Z,100385.13
2023-10-23T21:53:48.399Z,100381.22
2023-10-23T21:57:19.098Z,100375.25
2023-10-23T22:00:28.293Z,100367.88
2023-10-23T22:03:31.688Z,100372.75
2023-10-23T22:06:34.458Z,100378.09
2023-10-23T22:09:38.514Z,100379.34
2023-10-23T22:12:41.257Z,100376.22
2023-10-23T22:15:43.642Z,100385.16
2023-10-23T22:18:46.027Z,100386.09
2023-10-23T22:21:48.474Z,100385.47
2023-10-23T22:24:50.922Z,100374.00
2023-10-23T22:27:53.334Z,100361.44
2023-10-23T22:30:55.826Z,100358.63
2023-10-23T22:33:58.366Z,100356.75
2023-10-23T22:37:59.340Z,100365.50
2023-10-23T22:40:23.296Z,100366.78
2023-10-23T22:43:26.908Z,100362.50
2023-10-23T22:46:29.467Z,100358.75
2023-10-23T22:49:32.281Z,100349.50
2023-10-23T22:52:35.277Z,100354.50
2023-10-23T22:55:38.144Z,100347.63
2023-10-23T22:58:41.646Z,100341.50
2023-10-23T23:01:47.247Z,100333.81
2023-10-23T23:04:50.118Z,100324.53
2023-10-23T23:07:56.550Z,100320.78
2023-10-23T23:10:59.286Z,100315.78
2023-10-23T23:14:02.103Z,100313.44
2023-10-23T23:17:06.993Z,100308.72
2023-10-23T23:20:12.919Z,100299.47
2023-10-23T23:23:15.366Z,100314.06
2023-10-23T23:26:17.792Z,100316.56
2023-10-23T23:29:20.154Z,100318.22
2023-10-23T23:32:22.733Z,100312.13
2023-10-23T23:35:25.454Z,100314.94
2023-10-23T23:38:27.850Z,100310.09
2023-10-23T23:41:30.333Z,100302.56
2023-10-23T23:44:32.736Z,100304.47
2023-10-23T23:47:35.265Z,100301.94
2023-10-23T23:50:37.686Z,100305.06
2023-10-23T23:53:40.203Z,100307.44
2023-10-23T23:56:42.627Z,100303.81
2023-10-23T23:59:45.086Z,100304.72
